createdAt,value
2023-04-27T00:01:39.412Z,13.16
2023-04-27T00:06:42.053Z,12.94
2023-04-27T00:11:44.290Z,12.79
2023-04-27T00:16:46.857Z,12.85
2023-04-27T00:21:49.080Z,12.96
2023-04-27T00:26:51.290Z,13.48
2023-04-27T00:31:53.568Z,12.53
2023-04-27T00:36:58.173Z,12.45
2023-04-27T00:42:01.242Z,12.81
2023-04-27T00:47:03.735Z,12.66
2023-04-27T00:52:06.194Z,12.74
2023-04-27T00:57:09.179Z,12.74
2023-04-27T01:02:12.534Z,12.52
2023-04-27T01:07:14.948Z,13.19
2023-04-27T01:12:17.190Z,12.97
2023-04-27T01:17:19.330Z,13.22
2023-04-27T01:22:22.311Z,12.20
2023-04-27T01:27:26.113Z,13.22
2023-04-27T01:32:28.420Z,13.29
2023-04-27T01:37:31.263Z,13.03
2023-04-27T01:42:33.452Z,12.13
2023-04-27T01:47:36.017Z,12.82
2023-04-27T01:52:38.255Z,12.89
2023-04-27T01:57:40.755Z,12.23
2023-04-27T02:02:43.140Z,12.81
2023-04-27T02:07:45.520Z,12.45
2023-04-27T02:12:48.286Z,12.54
2023-04-27T02:17:50.525Z,12.27
2023-04-27T02:22:53.443Z,12.23
2023-04-27T02:27:56.012Z,12.71
2023-04-27T02:33:02.624Z,12.72
2023-04-27T02:38:07.155Z,12.97
2023-04-27T02:43:12.925Z,12.85
2023-04-27T02:48:15.099Z,12.61
2023-04-27T02:53:17.220Z,12.88
2023-04-27T02:58:20.127Z,12.84
2023-04-27T03:03:23.645Z,12.16
2023-04-27T03:08:27.127Z,12.61
2023-04-27T03:13:29.476Z,12.24
2023-04-27T03:18:32.018Z,12.12
2023-04-27T03:23:34.913Z,12.34
2023-04-27T03:28:38.537Z,12.16
2023-04-27T03:33:42.131Z,12.20
2023-04-27T03:38:44.741Z,12.69
2023-04-27T03:43:47.835Z,12.00
2023-04-27T03:48:50.180Z,11.62
2023-04-27T03:53:55.274Z,12.07
2023-04-27T03:58:58.382Z,11.69
2023-04-27T04:04:12.267Z,11.53
2023-04-27T04:09:15.567Z,11.69
2023-04-27T04:14:19.163Z,11.86
2023-04-27T04:19:22.209Z,11.82
2023-04-27T04:24:24.529Z,11.43
2023-04-27T04:29:27.341Z,12.12
2023-04-27T04:34:30.544Z,11.73
2023-04-27T04:39:33.632Z,12.10
2023-04-27T04:44:38.906Z,11.87
2023-04-27T04:49:41.311Z,12.29
2023-04-27T04:54:44.058Z,12.68
2023-04-27T04:59:46.237Z,11.79
2023-04-27T05:04:48.701Z,11.55
2023-04-27T05:09:50.937Z,12.10
2023-04-27T05:14:53.918Z,11.66
2023-04-27T05:19:56.407Z,12.53
2023-04-27T05:24:59.187Z,12.66
2023-04-27T05:30:01.387Z,12.20
2023-04-27T05:35:05.111Z,12.00
2023-04-27T05:40:11.430Z,12.53
2023-04-27T05:45:13.798Z,13.02
2023-04-27T05:50:16.609Z,12.76
2023-04-27T05:55:18.738Z,13.22
2023-04-27T06:00:22.545Z,13.33
2023-04-27T06:05:24.766Z,13.22
2023-04-27T06:10:27.028Z,12.90
2023-04-27T06:15:29.471Z,13.39
2023-04-27T06:20:34.599Z,13.74
2023-04-27T06:25:38.958Z,13.78
2023-04-27T06:30:41.246Z,14.24
2023-04-27T06:35:46.474Z,14.03
2023-04-27T06:40:53.222Z,14.27
2023-04-27T06:45:55.776Z,14.78
2023-04-27T06:50:58.033Z,14.11
2023-04-27T06:56:00.231Z,14.16
2023-04-27T07:01:02.755Z,14.17
2023-04-27T07:06:05.077Z,15.92
2023-04-27T07:11:07.335Z,14.11
2023-04-27T07:16:09.810Z,16.32
2023-04-27T07:21:12.117Z,14.61
2023-04-27T07:26:14.441Z,15.66
2023-04-27T07:31:16.951Z,16.01
2023-04-27T07:36:19.881Z,15.88
2023-04-27T07:41:23.684Z,16.97
2023-04-27T07:46:26.329Z,16.27
2023-04-27T07:51:28.727Z,16.26
2023-04-27T07:56:31.121Z,17.41
2023-04-27T08:01:33.282Z,17.22
2023-04-27T08:06:36.622Z,17.20
2023-04-27T08:11:39.269Z,16.89
2023-04-27T08:16:45.076Z,17.43
2023-04-27T08:21:47.369Z,17.23
2023-04-27T08:26:49.625Z,17.77
2023-04-27T08:31:52.663Z,18.11
2023-04-27T08:37:05.013Z,16.99
2023-04-27T08:42:15.207Z,18.35
2023-04-27T08:47:20.217Z,17.67
2023-04-27T08:52:29.289Z,18.48
2023-04-27T08:57:31.524Z,18.76
2023-04-27T09:02:33.888Z,17.64
2023-04-27T09:07:36.230Z,18.67
2023-04-27T09:12:38.494Z,18.07
2023-04-27T09:17:40.915Z,18.61
2023-04-27T09:22:47.698Z,18.69
2023-04-27T09:27:49.975Z,19.14
2023-04-27T09:32:57.812Z,19.22
2023-04-27T09:38:01.310Z,19.20
2023-04-27T09:43:03.455Z,19.58
2023-04-27T09:48:07.430Z,19.64
2023-04-27T09:53:16.091Z,19.88
2023-04-27T09:58:37.233Z,18.42
2023-04-27T10:04:16.659Z,20.01
2023-04-27T10:09:25.741Z,19.48
2023-04-27T10:14:29.280Z,19.39
2023-04-27T10:19:32.725Z,18.77
2023-04-27T10:24:41.046Z,19.93
2023-04-27T10:29:47.383Z,19.25
2023-04-27T10:35:05.513Z,20.47
2023-04-27T10:40:17.822Z,21.20
2023-04-27T10:45:31.733Z,21.33
2023-04-27T10:50:35.226Z,21.03
2023-04-27T10:55:38.263Z,20.99
2023-04-27T11:00:44.345Z,21.21
2023-04-27T11:05:49.247Z,20.51
2023-04-27T11:10:52.704Z,21.70
2023-04-27T11:16:00.754Z,21.75
2023-04-27T11:21:19.058Z,21.48
2023-04-27T11:26:26.765Z,19.74
2023-04-27T11:31:49.471Z,21.89
2023-04-27T11:37:17.309Z,22.33
2023-04-27T11:42:23.128Z,21.98
2023-04-27T11:47:28.220Z,21.30
2023-04-27T11:52:32.112Z,22.59
2023-04-27T11:57:36.697Z,23.09
2023-04-27T12:02:39.202Z,23.23
2023-04-27T12:07:42.314Z,22.83
2023-04-27T12:12:44.421Z,22.63
2023-04-27T12:17:47.261Z,23.12
2023-04-27T12:22:49.413Z,23.32
2023-04-27T12:27:51.915Z,23.20
2023-04-27T12:32:54.443Z,23.37
2023-04-27T12:37:56.712Z,23.74
2023-04-27T12:43:01.010Z,23.06
2023-04-27T12:48:04.385Z,22.59
2023-04-27T12:53:06.982Z,22.68
2023-04-27T12:58:09.231Z,22.51
2023-04-27T13:03:12.004Z,22.70
2023-04-27T13:08:14.313Z,23.12
2023-04-27T13:13:16.624Z,21.88
2023-04-27T13:18:18.980Z,23.14
2023-04-27T13:23:21.396Z,24.05
2023-04-27T13:28:23.850Z,23.25
2023-04-27T13:33:26.082Z,22.78
2023-04-27T13:38:29.206Z,23.58
2023-04-27T13:43:31.803Z,23.86
2023-04-27T13:48:34.048Z,24.17
2023-04-27T13:53:36.144Z,24.22
2023-04-27T13:58:38.583Z,24.12
2023-04-27T14:03:43.272Z,24.78
2023-04-27T14:08:46.027Z,23.76
2023-04-27T14:13:48.146Z,23.72
2023-04-27T14:18:50.470Z,23.99
2023-04-27T14:23:52.636Z,24.55
2023-04-27T14:28:58.562Z,24.03
2023-04-27T14:34:01.199Z,24.69
2023-04-27T14:39:05.607Z,24.07
2023-04-27T14:44:09.051Z,23.31
2023-04-27T14:49:11.789Z,23.63
2023-04-27T14:54:14.175Z,23.95
2023-04-27T14:59:16.960Z,23.35
2023-04-27T15:04:19.852Z,24.04
2023-04-27T15:09:22.076Z,22.45
2023-04-27T15:14:24.153Z,22.73
2023-04-27T15:19:26.997Z,22.85
2023-04-27T15:24:29.326Z,23.30
2023-04-27T15:29:31.569Z,23.84
2023-04-27T15:34:33.847Z,23.67
2023-04-27T15:39:36.201Z,24.15
2023-04-27T15:44:38.468Z,23.86
2023-04-27T15:49:53.675Z,23.19
2023-04-27T15:55:01.005Z,23.28
2023-04-27T16:00:06.949Z,23.57
2023-04-27T16:05:12.642Z,23.57
2023-04-27T16:10:14.955Z,23.68
2023-04-27T16:15:17.610Z,23.39
2023-04-27T16:20:20.060Z,23.11
2023-04-27T16:25:22.994Z,22.99
2023-04-27T16:30:25.435Z,22.74
2023-04-27T16:35:29.147Z,23.24
2023-04-27T16:40:31.822Z,23.16
2023-04-27T16:45:34.606Z,23.02
2023-04-27T16:50:37.060Z,23.08
2023-04-27T16:55:39.194Z,23.11
2023-04-27T17:00:41.556Z,23.33
2023-04-27T17:05:43.795Z,22.10
2023-04-27T17:10:46.086Z,23.01
2023-04-27T17:15:50.147Z,22.27
2023-04-27T17:20:53.155Z,21.83
2023-04-27T17:25:56.126Z,21.96
2023-04-27T17:30:58.408Z,21.65
2023-04-27T17:36:00.737Z,21.54
2023-04-27T17:41:03.029Z,21.64
2023-04-27T17:46:12.181Z,21.74
2023-04-27T17:51:15.698Z,20.82
2023-04-27T17:56:17.927Z,20.51
2023-04-27T18:01:20.126Z,20.67
2023-04-27T18:06:22.448Z,20.83
2023-04-27T18:11:24.591Z,20.69
2023-04-27T18:16:26.875Z,20.93
2023-04-27T18:21:29.947Z,20.89
2023-04-27T18:26:36.563Z,20.27
2023-04-27T18:31:38.714Z,19.93
2023-04-27T18:36:41.143Z,20.33
2023-04-27T18:41:44.043Z,19.45
2023-04-27T18:46:46.221Z,19.51
2023-04-27T18:51:48.330Z,19.91
2023-04-27T18:56:53.228Z,19.58
2023-04-27T19:01:55.878Z,18.86
2023-04-27T19:06:58.151Z,19.63
2023-04-27T19:12:03.394Z,18.86
2023-04-27T19:17:06.687Z,18.99
2023-04-27T19:22:10.417Z,18.69
2023-04-27T19:27:13.029Z,19.09
2023-04-27T19:32:15.538Z,18.23
2023-04-27T19:37:17.772Z,18.56
2023-04-27T19:42:20.214Z,18.58
2023-04-27T19:47:24.010Z,18.59
2023-04-27T19:52:26.725Z,18.92
2023-04-27T19:57:28.989Z,18.02
2023-04-27T20:02:31.308Z,18.11
2023-04-27T20:07:33.643Z,18.55
2023-04-27T20:17:42.231Z,18.54
2023-04-27T20:22:45.132Z,17.58
2023-04-27T20:27:47.490Z,17.93
2023-04-27T20:32:49.938Z,17.73
2023-04-27T20:37:53.954Z,17.48
2023-04-27T20:42:56.386Z,18.45
2023-04-27T20:47:58.562Z,17.55
2023-04-27T20:53:00.978Z,16.99
2023-04-27T20:58:03.182Z,18.31
2023-04-27T21:03:06.606Z,17.65
2023-04-27T21:08:08.999Z,16.95
2023-04-27T21:13:11.328Z,18.13
2023-04-27T21:18:22.430Z,18.24
2023-04-27T21:23:31.032Z,17.72
2023-04-27T21:28:33.417Z,18.10
2023-04-27T21:33:35.837Z,17.62
2023-04-27T21:38:38.116Z,17.68
2023-04-27T21:43:42.060Z,17.62
2023-04-27T21:48:44.419Z,17.21
2023-04-27T21:53:46.640Z,17.10
2023-04-27T21:58:48.807Z,17.30
2023-04-27T22:03:51.516Z,16.77
2023-04-27T22:08:54.281Z,16.00
2023-04-27T22:13:56.615Z,16.27
2023-04-27T22:18:59.800Z,16.09
2023-04-27T22:24:02.073Z,16.41
2023-04-27T22:29:04.447Z,16.58
2023-04-27T22:34:06.904Z,16.12
2023-04-27T22:39:09.306Z,16.03
2023-04-27T22:44:11.527Z,16.07
2023-04-27T22:49:15.139Z,15.56
2023-04-27T22:54:17.662Z,16.28
2023-04-27T22:59:22.957Z,15.63
2023-04-27T23:04:26.575Z,16.42
2023-04-27T23:09:29.008Z,16.05
2023-04-27T23:14:31.487Z,16.45
2023-04-27T23:19:34.373Z,15.80
2023-04-27T23:24:36.620Z,16.63
2023-04-27T23:29:39.449Z,16.09
2023-04-27T23:34:41.733Z,15.43
2023-04-27T23:39:43.961Z,15.82
2023-04-27T23:44:46.236Z,16.03
2023-04-27T23:49:48.566Z,16.12
2023-04-27T23:54:50.822Z,16.71
2023-04-27T23:59:53.104Z,15.87
